sensor_id;sensor_type;location;lat;lon;timestamp;P1;durP1;ratioP1;P2;durP2;ratioP2
50002;SDS011;35889;51.442;6.408;2022-07-06T00:01:17;0.60;;;0.60;;
50002;SDS011;35889;51.442;6.408;2022-07-06T00:03:43;0.60;;;0.60;;
50002;SDS011;35889;51.442;6.408;2022-07-06T00:06:09;0.60;;;0.60;;
50002;SDS011;35889;51.442;6.408;2022-07-06T00:08:34;0.60;;;0.60;;
50002;SDS011;35889;51.442;6.408;2022-07-06T00:11:00;0.70;;;0.70;;
50002;SDS011;35889;51.442;6.408;2022-07-06T00:13:26;0.60;;;0.60;;
50002;SDS011;35889;51.442;6.408;2022-07-06T00:15:52;0.60;;;0.60;;
50002;SDS011;35889;51.442;6.408;2022-07-06T00:18:17;0.60;;;0.60;;
50002;SDS011;35889;51.442;6.408;2022-07-06T00:20:43;0.60;;;0.60;;
50002;SDS011;35889;51.442;6.408;2022-07-06T00:23:08;0.60;;;0.60;;
50002;SDS011;35889;51.442;6.408;2022-07-06T00:25:34;0.60;;;0.60;;
50002;SDS011;35889;51.442;6.408;2022-07-06T00:27:59;0.70;;;0.70;;
50002;SDS011;35889;51.442;6.408;2022-07-06T00:30:25;0.60;;;0.60;;
50002;SDS011;35889;51.442;6.408;2022-07-06T00:32:50;0.70;;;0.70;;
50002;SDS011;35889;51.442;6.408;2022-07-06T00:35:16;0.60;;;0.60;;
50002;SDS011;35889;51.442;6.408;2022-07-06T00:37:41;0.60;;;0.60;;
50002;SDS011;35889;51.442;6.408;2022-07-06T00:40:10;0.70;;;0.70;;
50002;SDS011;35889;51.442;6.408;2022-07-06T00:42:42;0.70;;;0.70;;
50002;SDS011;35889;51.442;6.408;2022-07-06T00:45:08;0.63;;;0.63;;
50002;SDS011;35889;51.442;6.408;2022-07-06T00:47:34;0.60;;;0.60;;
50002;SDS011;35889;51.442;6.408;2022-07-06T00:50:00;0.60;;;0.60;;
50002;SDS011;35889;51.442;6.408;2022-07-06T00:52:39;0.70;;;0.70;;
50002;SDS011;35889;51.442;6.408;2022-07-06T00:55:08;0.60;;;0.60;;
50002;SDS011;35889;51.442;6.408;2022-07-06T00:57:35;0.60;;;0.60;;
50002;SDS011;35889;51.442;6.408;2022-07-06T01:00:02;0.60;;;0.60;;
50002;SDS011;35889;51.442;6.408;2022-07-06T01:02:30;0.60;;;0.60;;
50002;SDS011;35889;51.442;6.408;2022-07-06T01:04:56;0.60;;;0.60;;
50002;SDS011;35889;51.442;6.408;2022-07-06T01:07:22;0.70;;;0.70;;
50002;SDS011;35889;51.442;6.408;2022-07-06T01:09:47;0.60;;;0.60;;
50002;SDS011;35889;51.442;6.408;2022-07-06T01:12:13;0.60;;;0.60;;
50002;SDS011;35889;51.442;6.408;2022-07-06T01:14:39;0.70;;;0.70;;
50002;SDS011;35889;51.442;6.408;2022-07-06T01:17:06;0.60;;;0.60;;
50002;SDS011;35889;51.442;6.408;2022-07-06T01:19:32;0.60;;;0.60;;
50002;SDS011;35889;51.442;6.408;2022-07-06T01:21:57;0.60;;;0.60;;
50002;SDS011;35889;51.442;6.408;2022-07-06T01:24:23;0.60;;;0.60;;
50002;SDS011;35889;51.442;6.408;2022-07-06T01:26:48;0.60;;;0.60;;
50002;SDS011;35889;51.442;6.408;2022-07-06T01:29:15;0.70;;;0.70;;
50002;SDS011;35889;51.442;6.408;2022-07-06T01:31:47;0.70;;;0.70;;
50002;SDS011;35889;51.442;6.408;2022-07-06T01:34:14;0.60;;;0.60;;
50002;SDS011;35889;51.442;6.408;2022-07-06T01:36:40;0.68;;;0.68;;
50002;SDS011;35889;51.442;6.408;2022-07-06T01:39:06;0.60;;;0.60;;
50002;SDS011;35889;51.442;6.408;2022-07-06T01:41:35;0.50;;;0.50;;
50002;SDS011;35889;51.442;6.408;2022-07-06T01:44:01;0.57;;;0.57;;
50002;SDS011;35889;51.442;6.408;2022-07-06T01:46:27;0.60;;;0.60;;
50002;SDS011;35889;51.442;6.408;2022-07-06T01:48:53;0.60;;;0.60;;
50002;SDS011;35889;51.442;6.408;2022-07-06T01:51:18;0.70;;;0.70;;
50002;SDS011;35889;51.442;6.408;2022-07-06T01:53:45;0.60;;;0.60;;
50002;SDS011;35889;51.442;6.408;2022-07-06T01:56:11;0.60;;;0.60;;
50002;SDS011;35889;51.442;6.408;2022-07-06T01:58:38;0.70;;;0.70;;
50002;SDS011;35889;51.442;6.408;2022-07-06T02:01:07;0.60;;;0.60;;
50002;SDS011;35889;51.442;6.408;2022-07-06T02:03:33;0.60;;;0.60;;
50002;SDS011;35889;51.442;6.408;2022-07-06T02:05:59;0.60;;;0.60;;
50002;SDS011;35889;51.442;6.408;2022-07-06T02:08:25;0.60;;;0.60;;
50002;SDS011;35889;51.442;6.408;2022-07-06T02:10:53;0.60;;;0.60;;
50002;SDS011;35889;51.442;6.408;2022-07-06T02:13:19;0.60;;;0.60;;
50002;SDS011;35889;51.442;6.408;2022-07-06T02:15:44;0.60;;;0.60;;
50002;SDS011;35889;51.442;6.408;2022-07-06T02:18:10;0.70;;;0.70;;
50002;SDS011;35889;51.442;6.408;2022-07-06T02:20:35;0.60;;;0.60;;
50002;SDS011;35889;51.442;6.408;2022-07-06T02:23:01;0.70;;;0.70;;
50002;SDS011;35889;51.442;6.408;2022-07-06T02:25:26;0.70;;;0.70;;
50002;SDS011;35889;51.442;6.408;2022-07-06T02:27:52;0.70;;;0.70;;
50002;SDS011;35889;51.442;6.408;2022-07-06T02:30:17;0.70;;;0.70;;
50002;SDS011;35889;51.442;6.408;2022-07-06T02:32:44;0.60;;;0.60;;
50002;SDS011;35889;51.442;6.408;2022-07-06T02:35:10;0.60;;;0.60;;
50002;SDS011;35889;51.442;6.408;2022-07-06T02:37:36;0.60;;;0.60;;
50002;SDS011;35889;51.442;6.408;2022-07-06T02:40:01;0.70;;;0.70;;
50002;SDS011;35889;51.442;6.408;2022-07-06T02:42:29;0.60;;;0.60;;
50002;SDS011;35889;51.442;6.408;2022-07-06T02:44:54;0.60;;;0.60;;
50002;SDS011;35889;51.442;6.408;2022-07-06T02:47:20;0.60;;;0.60;;
50002;SDS011;35889;51.442;6.408;2022-07-06T02:49:46;0.70;;;0.70;;
50002;SDS011;35889;51.442;6.408;2022-07-06T02:52:11;0.60;;;0.60;;
50002;SDS011;35889;51.442;6.408;2022-07-06T02:54:37;0.60;;;0.60;;
50002;SDS011;35889;51.442;6.408;2022-07-06T02:57:03;0.60;;;0.60;;
50002;SDS011;35889;51.442;6.408;2022-07-06T02:59:28;0.60;;;0.60;;
50002;SDS011;35889;51.442;6.408;2022-07-06T03:01:54;0.63;;;0.63;;
50002;SDS011;35889;51.442;6.408;2022-07-06T03:04:20;0.70;;;0.70;;
50002;SDS011;35889;51.442;6.408;2022-07-06T03:06:46;0.68;;;0.68;;
50002;SDS011;35889;51.442;6.408;2022-07-06T03:09:12;0.60;;;0.60;;
50002;SDS011;35889;51.442;6.408;2022-07-06T03:11:38;0.70;;;0.70;;
50002;SDS011;35889;51.442;6.408;2022-07-06T03:14:04;0.60;;;0.60;;
50002;SDS011;35889;51.442;6.408;2022-07-06T03:16:33;0.60;;;0.60;;
50002;SDS011;35889;51.442;6.408;2022-07-06T03:18:58;0.60;;;0.60;;
50002;SDS011;35889;51.442;6.408;2022-07-06T03:21:24;0.60;;;0.60;;
50002;SDS011;35889;51.442;6.408;2022-07-06T03:23:50;0.60;;;0.60;;
50002;SDS011;35889;51.442;6.408;2022-07-06T03:26:16;0.60;;;0.60;;
50002;SDS011;35889;51.442;6.408;2022-07-06T03:28:42;0.60;;;0.60;;
50002;SDS011;35889;51.442;6.408;2022-07-06T03:31:08;0.60;;;0.60;;
50002;SDS011;35889;51.442;6.408;2022-07-06T03:33:33;0.60;;;0.60;;
50002;SDS011;35889;51.442;6.408;2022-07-06T03:35:59;0.60;;;0.60;;
50002;SDS011;35889;51.442;6.408;2022-07-06T03:38:25;0.60;;;0.60;;
50002;SDS011;35889;51.442;6.408;2022-07-06T03:40:51;0.60;;;0.60;;
50002;SDS011;35889;51.442;6.408;2022-07-06T03:43:16;0.63;;;0.63;;
50002;SDS011;35889;51.442;6.408;2022-07-06T03:45:42;0.70;;;0.70;;
50002;SDS011;35889;51.442;6.408;2022-07-06T03:48:08;0.60;;;0.60;;
50002;SDS011;35889;51.442;6.408;2022-07-06T03:50:36;0.68;;;0.68;;
50002;SDS011;35889;51.442;6.408;2022-07-06T03:53:02;0.70;;;0.70;;
50002;SDS011;35889;51.442;6.408;2022-07-06T03:55:28;0.60;;;0.60;;
50002;SDS011;35889;51.442;6.408;2022-07-06T03:57:57;0.60;;;0.60;;
50002;SDS011;35889;51.442;6.408;2022-07-06T04:00:23;0.70;;;0.70;;
50002;SDS011;35889;51.442;6.408;2022-07-06T04:02:56;0.60;;;0.60;;
50002;SDS011;35889;51.442;6.408;2022-07-06T04:05:26;0.57;;;0.57;;
50002;SDS011;35889;51.442;6.408;2022-07-06T04:07:53;0.68;;;0.68;;
50002;SDS011;35889;51.442;6.408;2022-07-06T04:10:23;0.63;;;0.63;;
50002;SDS011;35889;51.442;6.408;2022-07-06T04:12:49;0.60;;;0.60;;
50002;SDS011;35889;51.442;6.408;2022-07-06T04:15:17;0.60;;;0.60;;
50002;SDS011;35889;51.442;6.408;2022-07-06T04:17:43;0.70;;;0.70;;
50002;SDS011;35889;51.442;6.408;2022-07-06T04:20:18;0.60;;;0.60;;
50002;SDS011;35889;51.442;6.408;2022-07-06T04:22:47;0.65;;;0.65;;
50002;SDS011;35889;51.442;6.408;2022-07-06T04:25:14;0.70;;;0.70;;
50002;SDS011;35889;51.442;6.408;2022-07-06T04:27:40;0.70;;;0.70;;
50002;SDS011;35889;51.442;6.408;2022-07-06T04:30:06;0.70;;;0.70;;
50002;SDS011;35889;51.442;6.408;2022-07-06T04:32:32;0.60;;;0.60;;
50002;SDS011;35889;51.442;6.408;2022-07-06T04:34:58;0.60;;;0.60;;
50002;SDS011;35889;51.442;6.408;2022-07-06T04:37:24;0.60;;;0.60;;
50002;SDS011;35889;51.442;6.408;2022-07-06T04:39:50;0.60;;;0.60;;
50002;SDS011;35889;51.442;6.408;2022-07-06T04:42:16;0.60;;;0.60;;
50002;SDS011;35889;51.442;6.408;2022-07-06T04:44:41;0.60;;;0.60;;
50002;SDS011;35889;51.442;6.408;2022-07-06T04:47:07;0.60;;;0.60;;
50002;SDS011;35889;51.442;6.408;2022-07-06T04:49:32;0.60;;;0.60;;
50002;SDS011;35889;51.442;6.408;2022-07-06T04:51:58;0.60;;;0.60;;
50002;SDS011;35889;51.442;6.408;2022-07-06T04:54:24;0.60;;;0.60;;
50002;SDS011;35889;51.442;6.408;2022-07-06T04:56:49;0.68;;;0.68;;
50002;SDS011;35889;51.442;6.408;2022-07-06T04:59:15;0.60;;;0.60;;
50002;SDS011;35889;51.442;6.408;2022-07-06T05:01:42;0.70;;;0.70;;
50002;SDS011;35889;51.442;6.408;2022-07-06T05:04:09;0.60;;;0.60;;
50002;SDS011;35889;51.442;6.408;2022-07-06T05:06:34;0.68;;;0.68;;
50002;SDS011;35889;51.442;6.408;2022-07-06T05:09:00;0.70;;;0.70;;
50002;SDS011;35889;51.442;6.408;2022-07-06T05:11:28;0.65;;;0.65;;
50002;SDS011;35889;51.442;6.408;2022-07-06T05:13:54;0.70;;;0.70;;
50002;SDS011;35889;51.442;6.408;2022-07-06T05:16:20;0.70;;;0.70;;
50002;SDS011;35889;51.442;6.408;2022-07-06T05:18:46;0.60;;;0.60;;
50002;SDS011;35889;51.442;6.408;2022-07-06T05:21:13;0.60;;;0.60;;
50002;SDS011;35889;51.442;6.408;2022-07-06T05:23:38;0.70;;;0.70;;
50002;SDS011;35889;51.442;6.408;2022-07-06T05:26:04;0.60;;;0.60;;
50002;SDS011;35889;51.442;6.408;2022-07-06T05:28:31;0.70;;;0.70;;
50002;SDS011;35889;51.442;6.408;2022-07-06T05:30:56;0.60;;;0.60;;
50002;SDS011;35889;51.442;6.408;2022-07-06T05:33:22;0.60;;;0.60;;
50002;SDS011;35889;51.442;6.408;2022-07-06T05:35:48;0.63;;;0.63;;
50002;SDS011;35889;51.442;6.408;2022-07-06T05:38:13;0.70;;;0.70;;
50002;SDS011;35889;51.442;6.408;2022-07-06T05:40:39;0.68;;;0.68;;
50002;SDS011;35889;51.442;6.408;2022-07-06T05:43:05;0.70;;;0.70;;
50002;SDS011;35889;51.442;6.408;2022-07-06T05:45:31;0.60;;;0.60;;
50002;SDS011;35889;51.442;6.408;2022-07-06T05:47:57;0.60;;;0.60;;
50002;SDS011;35889;51.442;6.408;2022-07-06T05:50:42;0.60;;;0.60;;
50002;SDS011;35889;51.442;6.408;2022-07-06T05:53:07;0.60;;;0.60;;
50002;SDS011;35889;51.442;6.408;2022-07-06T05:55:33;0.60;;;0.60;;
50002;SDS011;35889;51.442;6.408;2022-07-06T05:58:01;0.68;;;0.68;;
50002;SDS011;35889;51.442;6.408;2022-07-06T06:00:29;0.60;;;0.60;;
50002;SDS011;35889;51.442;6.408;2022-07-06T06:03:00;0.60;;;0.60;;
50002;SDS011;35889;51.442;6.408;2022-07-06T06:05:26;0.60;;;0.60;;
50002;SDS011;35889;51.442;6.408;2022-07-06T06:07:56;0.70;;;0.70;;
50002;SDS011;35889;51.442;6.408;2022-07-06T06:10:24;0.70;;;0.70;;
50002;SDS011;35889;51.442;6.408;2022-07-06T06:12:53;0.70;;;0.70;;
50002;SDS011;35889;51.442;6.408;2022-07-06T06:15:18;0.70;;;0.70;;
50002;SDS011;35889;51.442;6.408;2022-07-06T06:17:44;0.63;;;0.63;;
50002;SDS011;35889;51.442;6.408;2022-07-06T06:20:11;0.70;;;0.70;;
50002;SDS011;35889;51.442;6.408;2022-07-06T06:22:50;0.60;;;0.60;;
50002;SDS011;35889;51.442;6.408;2022-07-06T06:25:18;0.70;;;0.70;;
50002;SDS011;35889;51.442;6.408;2022-07-06T06:27:45;0.60;;;0.60;;
50002;SDS011;35889;51.442;6.408;2022-07-06T06:30:10;0.60;;;0.60;;
50002;SDS011;35889;51.442;6.408;2022-07-06T06:32:37;0.65;;;0.65;;
50002;SDS011;35889;51.442;6.408;2022-07-06T06:35:03;0.70;;;0.70;;
50002;SDS011;35889;51.442;6.408;2022-07-06T06:37:29;0.70;;;0.70;;
50002;SDS011;35889;51.442;6.408;2022-07-06T06:39:54;0.70;;;0.70;;
50002;SDS011;35889;51.442;6.408;2022-07-06T06:42:20;0.70;;;0.70;;
50002;SDS011;35889;51.442;6.408;2022-07-06T06:44:47;0.60;;;0.60;;
50002;SDS011;35889;51.442;6.408;2022-07-06T06:47:13;0.70;;;0.70;;
50002;SDS011;35889;51.442;6.408;2022-07-06T06:49:38;0.70;;;0.70;;
50002;SDS011;35889;51.442;6.408;2022-07-06T06:52:04;0.70;;;0.70;;
50002;SDS011;35889;51.442;6.408;2022-07-06T06:54:29;0.60;;;0.60;;
50002;SDS011;35889;51.442;6.408;2022-07-06T06:56:55;0.70;;;0.70;;
50002;SDS011;35889;51.442;6.408;2022-07-06T06:59:20;0.70;;;0.70;;
50002;SDS011;35889;51.442;6.408;2022-07-06T07:01:46;0.70;;;0.70;;
50002;SDS011;35889;51.442;6.408;2022-07-06T07:04:11;0.60;;;0.60;;
50002;SDS011;35889;51.442;6.408;2022-07-06T07:06:37;0.70;;;0.70;;
50002;SDS011;35889;51.442;6.408;2022-07-06T07:09:02;0.70;;;0.70;;
50002;SDS011;35889;51.442;6.408;2022-07-06T07:11:28;0.77;;;0.77;;
50002;SDS011;35889;51.442;6.408;2022-07-06T07:13:53;0.70;;;0.70;;
50002;SDS011;35889;51.442;6.408;2022-07-06T07:16:19;0.60;;;0.60;;
50002;SDS011;35889;51.442;6.408;2022-07-06T07:18:44;0.70;;;0.70;;
50002;SDS011;35889;51.442;6.408;2022-07-06T07:21:10;0.70;;;0.70;;
50002;SDS011;35889;51.442;6.408;2022-07-06T07:23:35;0.70;;;0.70;;
50002;SDS011;35889;51.442;6.408;2022-07-06T07:26:01;0.70;;;0.70;;
50002;SDS011;35889;51.442;6.408;2022-07-06T07:28:26;0.70;;;0.70;;
50002;SDS011;35889;51.442;6.408;2022-07-06T07:30:52;0.70;;;0.70;;
50002;SDS011;35889;51.442;6.408;2022-07-06T07:33:17;0.70;;;0.70;;
50002;SDS011;35889;51.442;6.408;2022-07-06T07:35:43;0.80;;;0.80;;
50002;SDS011;35889;51.442;6.408;2022-07-06T07:38:08;0.70;;;0.70;;
50002;SDS011;35889;51.442;6.408;2022-07-06T07:40:34;0.70;;;0.70;;
50002;SDS011;35889;51.442;6.408;2022-07-06T07:43:00;0.60;;;0.60;;
50002;SDS011;35889;51.442;6.408;2022-07-06T07:45:26;0.70;;;0.70;;
50002;SDS011;35889;51.442;6.408;2022-07-06T07:47:51;0.70;;;0.70;;
50002;SDS011;35889;51.442;6.408;2022-07-06T07:50:17;0.70;;;0.70;;
50002;SDS011;35889;51.442;6.408;2022-07-06T07:52:43;0.70;;;0.70;;
50002;SDS011;35889;51.442;6.408;2022-07-06T07:55:08;0.80;;;0.80;;
50002;SDS011;35889;51.442;6.408;2022-07-06T07:57:34;0.70;;;0.70;;
50002;SDS011;35889;51.442;6.408;2022-07-06T07:59:59;0.80;;;0.80;;
50002;SDS011;35889;51.442;6.408;2022-07-06T08:02:25;0.75;;;0.75;;
50002;SDS011;35889;51.442;6.408;2022-07-06T08:04:51;0.70;;;0.70;;
50002;SDS011;35889;51.442;6.408;2022-07-06T08:07:16;0.70;;;0.70;;
50002;SDS011;35889;51.442;6.408;2022-07-06T08:09:42;0.80;;;0.80;;
50002;SDS011;35889;51.442;6.408;2022-07-06T08:12:07;0.80;;;0.80;;
50002;SDS011;35889;51.442;6.408;2022-07-06T08:14:33;0.70;;;0.70;;
50002;SDS011;35889;51.442;6.408;2022-07-06T08:16:59;0.70;;;0.70;;
50002;SDS011;35889;51.442;6.408;2022-07-06T08:19:25;0.77;;;0.77;;
50002;SDS011;35889;51.442;6.408;2022-07-06T08:21:50;0.80;;;0.80;;
50002;SDS011;35889;51.442;6.408;2022-07-06T08:24:16;0.70;;;0.70;;
50002;SDS011;35889;51.442;6.408;2022-07-06T08:26:41;0.80;;;0.80;;
50002;SDS011;35889;51.442;6.408;2022-07-06T08:29:07;0.80;;;0.80;;
50002;SDS011;35889;51.442;6.408;2022-07-06T08:31:32;0.60;;;0.60;;
50002;SDS011;35889;51.442;6.408;2022-07-06T08:33:59;0.70;;;0.70;;
50002;SDS011;35889;51.442;6.408;2022-07-06T08:36:25;0.70;;;0.70;;
50002;SDS011;35889;51.442;6.408;2022-07-06T08:38:51;0.80;;;0.80;;
50002;SDS011;35889;51.442;6.408;2022-07-06T08:41:16;0.63;;;0.63;;
50002;SDS011;35889;51.442;6.408;2022-07-06T08:43:43;0.70;;;0.70;;
50002;SDS011;35889;51.442;6.408;2022-07-06T08:46:08;0.70;;;0.70;;
50002;SDS011;35889;51.442;6.408;2022-07-06T08:48:35;0.73;;;0.73;;
50002;SDS011;35889;51.442;6.408;2022-07-06T08:51:02;0.80;;;0.80;;
50002;SDS011;35889;51.442;6.408;2022-07-06T08:53:28;0.80;;;0.80;;
50002;SDS011;35889;51.442;6.408;2022-07-06T08:55:54;0.80;;;0.80;;
50002;SDS011;35889;51.442;6.408;2022-07-06T08:58:20;0.70;;;0.70;;
50002;SDS011;35889;51.442;6.408;2022-07-06T09:00:47;0.70;;;0.70;;
50002;SDS011;35889;51.442;6.408;2022-07-06T09:03:13;0.77;;;0.77;;
50002;SDS011;35889;51.442;6.408;2022-07-06T09:05:40;0.70;;;0.70;;
50002;SDS011;35889;51.442;6.408;2022-07-06T09:08:05;0.70;;;0.70;;
50002;SDS011;35889;51.442;6.408;2022-07-06T09:10:31;0.70;;;0.70;;
50002;SDS011;35889;51.442;6.408;2022-07-06T09:13:06;0.70;;;0.70;;
50002;SDS011;35889;51.442;6.408;2022-07-06T09:15:33;0.70;;;0.70;;
50002;SDS011;35889;51.442;6.408;2022-07-06T09:18:00;0.70;;;0.70;;
50002;SDS011;35889;51.442;6.408;2022-07-06T09:20:26;0.60;;;0.60;;
50002;SDS011;35889;51.442;6.408;2022-07-06T09:22:57;0.70;;;0.70;;
50002;SDS011;35889;51.442;6.408;2022-07-06T09:25:24;0.73;;;0.73;;
50002;SDS011;35889;51.442;6.408;2022-07-06T09:27:50;0.70;;;0.70;;
50002;SDS011;35889;51.442;6.408;2022-07-06T09:30:19;0.70;;;0.70;;
50002;SDS011;35889;51.442;6.408;2022-07-06T09:32:50;0.75;;;0.75;;
50002;SDS011;35889;51.442;6.408;2022-07-06T09:35:21;0.80;;;0.80;;
50002;SDS011;35889;51.442;6.408;2022-07-06T09:40:16;0.70;;;0.70;;
50002;SDS011;35889;51.442;6.408;2022-07-06T09:45:08;0.70;;;0.70;;
50002;SDS011;35889;51.442;6.408;2022-07-06T09:47:34;0.70;;;0.70;;
50002;SDS011;35889;51.442;6.408;2022-07-06T09:50:00;0.80;;;0.80;;
50002;SDS011;35889;51.442;6.408;2022-07-06T09:52:25;0.75;;;0.75;;
50002;SDS011;35889;51.442;6.408;2022-07-06T09:54:51;0.80;;;0.80;;
50002;SDS011;35889;51.442;6.408;2022-07-06T09:57:16;0.70;;;0.70;;
50002;SDS011;35889;51.442;6.408;2022-07-06T09:59:42;0.80;;;0.80;;
50002;SDS011;35889;51.442;6.408;2022-07-06T10:02:07;0.70;;;0.70;;
50002;SDS011;35889;51.442;6.408;2022-07-06T10:04:34;0.75;;;0.75;;
50002;SDS011;35889;51.442;6.408;2022-07-06T10:06:59;0.80;;;0.80;;
50002;SDS011;35889;51.442;6.408;2022-07-06T10:09:26;0.80;;;0.80;;
50002;SDS011;35889;51.442;6.408;2022-07-06T10:11:58;0.70;;;0.70;;
50002;SDS011;35889;51.442;6.408;2022-07-06T10:14:26;0.80;;;0.80;;
50002;SDS011;35889;51.442;6.408;2022-07-06T10:16:55;0.70;;;0.70;;
50002;SDS011;35889;51.442;6.408;2022-07-06T10:19:24;0.73;;;0.73;;
50002;SDS011;35889;51.442;6.408;2022-07-06T10:21:49;0.70;;;0.70;;
50002;SDS011;35889;51.442;6.408;2022-07-06T10:24:17;0.80;;;0.80;;
50002;SDS011;35889;51.442;6.408;2022-07-06T10:26:43;0.80;;;0.80;;
50002;SDS011;35889;51.442;6.408;2022-07-06T10:29:08;0.80;;;0.80;;
50002;SDS011;35889;51.442;6.408;2022-07-06T10:31:34;0.80;;;0.80;;
50002;SDS011;35889;51.442;6.408;2022-07-06T10:34:13;0.80;;;0.80;;
50002;SDS011;35889;51.442;6.408;2022-07-06T10:36:41;0.80;;;0.80;;
50002;SDS011;35889;51.442;6.408;2022-07-06T10:39:08;0.80;;;0.80;;
50002;SDS011;35889;51.442;6.408;2022-07-06T10:41:52;0.80;;;0.80;;
50002;SDS011;35889;51.442;6.408;2022-07-06T10:44:19;0.80;;;0.80;;
50002;SDS011;35889;51.442;6.408;2022-07-06T10:49:18;0.80;;;0.80;;
50002;SDS011;35889;51.442;6.408;2022-07-06T10:51:43;0.70;;;0.70;;
50002;SDS011;35889;51.442;6.408;2022-07-06T10:54:09;0.80;;;0.80;;
50002;SDS011;35889;51.442;6.408;2022-07-06T11:01:37;0.90;;;0.90;;
50002;SDS011;35889;51.442;6.408;2022-07-06T11:06:30;0.70;;;0.70;;
50002;SDS011;35889;51.442;6.408;2022-07-06T11:14:02;0.80;;;0.80;;
50002;SDS011;35889;51.442;6.408;2022-07-06T11:16:33;0.70;;;0.70;;
50002;SDS011;35889;51.442;6.408;2022-07-06T11:19:08;0.80;;;0.80;;
50002;SDS011;35889;51.442;6.408;2022-07-06T11:21:37;0.80;;;0.80;;
50002;SDS011;35889;51.442;6.408;2022-07-06T11:24:05;0.70;;;0.70;;
50002;SDS011;35889;51.442;6.408;2022-07-06T11:26:33;0.70;;;0.70;;
50002;SDS011;35889;51.442;6.408;2022-07-06T11:29:02;0.80;;;0.80;;
50002;SDS011;35889;51.442;6.408;2022-07-06T11:31:28;0.70;;;0.70;;
50002;SDS011;35889;51.442;6.408;2022-07-06T11:33:54;0.80;;;0.80;;
50002;SDS011;35889;51.442;6.408;2022-07-06T11:36:20;0.80;;;0.80;;
50002;SDS011;35889;51.442;6.408;2022-07-06T11:38:47;0.73;;;0.73;;
50002;SDS011;35889;51.442;6.408;2022-07-06T11:41:15;0.80;;;0.80;;
50002;SDS011;35889;51.442;6.408;2022-07-06T11:43:42;0.77;;;0.77;;
50002;SDS011;35889;51.442;6.408;2022-07-06T11:46:24;0.70;;;0.70;;
50002;SDS011;35889;51.442;6.408;2022-07-06T11:48:52;0.80;;;0.80;;
50002;SDS011;35889;51.442;6.408;2022-07-06T11:51:19;0.80;;;0.80;;
50002;SDS011;35889;51.442;6.408;2022-07-06T11:53:46;0.70;;;0.70;;
50002;SDS011;35889;51.442;6.408;2022-07-06T11:56:14;0.80;;;0.80;;
50002;SDS011;35889;51.442;6.408;2022-07-06T11:58:41;0.80;;;0.80;;
50002;SDS011;35889;51.442;6.408;2022-07-06T12:01:09;0.80;;;0.80;;
50002;SDS011;35889;51.442;6.408;2022-07-06T12:03:35;0.80;;;0.80;;
50002;SDS011;35889;51.442;6.408;2022-07-06T12:06:02;0.80;;;0.80;;
50002;SDS011;35889;51.442;6.408;2022-07-06T12:08:31;0.80;;;0.80;;
50002;SDS011;35889;51.442;6.408;2022-07-06T12:10:58;0.80;;;0.80;;
50002;SDS011;35889;51.442;6.408;2022-07-06T12:13:25;0.80;;;0.80;;
50002;SDS011;35889;51.442;6.408;2022-07-06T12:15:50;0.70;;;0.70;;
50002;SDS011;35889;51.442;6.408;2022-07-06T12:18:16;0.80;;;0.80;;
50002;SDS011;35889;51.442;6.408;2022-07-06T12:20:42;0.80;;;0.80;;
50002;SDS011;35889;51.442;6.408;2022-07-06T12:23:07;0.80;;;0.80;;
50002;SDS011;35889;51.442;6.408;2022-07-06T12:25:33;0.70;;;0.70;;
50002;SDS011;35889;51.442;6.408;2022-07-06T12:28:00;0.75;;;0.75;;
50002;SDS011;35889;51.442;6.408;2022-07-06T12:30:26;0.80;;;0.80;;
50002;SDS011;35889;51.442;6.408;2022-07-06T12:33:10;0.80;;;0.80;;
50002;SDS011;35889;51.442;6.408;2022-07-06T12:35:36;0.90;;;0.90;;
50002;SDS011;35889;51.442;6.408;2022-07-06T12:38:01;0.80;;;0.80;;
50002;SDS011;35889;51.442;6.408;2022-07-06T12:40:27;0.80;;;0.80;;
50002;SDS011;35889;51.442;6.408;2022-07-06T12:42:53;0.80;;;0.80;;
50002;SDS011;35889;51.442;6.408;2022-07-06T12:45:18;0.80;;;0.80;;
50002;SDS011;35889;51.442;6.408;2022-07-06T12:50:42;0.80;;;0.80;;
50002;SDS011;35889;51.442;6.408;2022-07-06T12:53:23;0.82;;;0.82;;
50002;SDS011;35889;51.442;6.408;2022-07-06T12:56:07;0.80;;;0.80;;
50002;SDS011;35889;51.442;6.408;2022-07-06T12:58:33;0.80;;;0.80;;
50002;SDS011;35889;51.442;6.408;2022-07-06T13:00:58;0.80;;;0.80;;
50002;SDS011;35889;51.442;6.408;2022-07-06T13:03:24;0.80;;;0.80;;
50002;SDS011;35889;51.442;6.408;2022-07-06T13:05:49;0.80;;;0.80;;
50002;SDS011;35889;51.442;6.408;2022-07-06T13:08:15;0.80;;;0.80;;
50002;SDS011;35889;51.442;6.408;2022-07-06T13:10:40;0.80;;;0.80;;
50002;SDS011;35889;51.442;6.408;2022-07-06T13:13:08;0.80;;;0.80;;
50002;SDS011;35889;51.442;6.408;2022-07-06T13:15:34;0.80;;;0.80;;
50002;SDS011;35889;51.442;6.408;2022-07-06T13:18:00;0.70;;;0.70;;
50002;SDS011;35889;51.442;6.408;2022-07-06T13:20:25;0.80;;;0.80;;
50002;SDS011;35889;51.442;6.408;2022-07-06T13:22:51;0.80;;;0.80;;
50002;SDS011;35889;51.442;6.408;2022-07-06T13:25:16;0.80;;;0.80;;
50002;SDS011;35889;51.442;6.408;2022-07-06T13:27:41;0.80;;;0.80;;
50002;SDS011;35889;51.442;6.408;2022-07-06T13:30:07;0.70;;;0.70;;
50002;SDS011;35889;51.442;6.408;2022-07-06T13:32:33;0.70;;;0.70;;
50002;SDS011;35889;51.442;6.408;2022-07-06T13:34:59;0.75;;;0.75;;
50002;SDS011;35889;51.442;6.408;2022-07-06T13:37:24;0.77;;;0.77;;
50002;SDS011;35889;51.442;6.408;2022-07-06T13:39:49;0.70;;;0.70;;
50002;SDS011;35889;51.442;6.408;2022-07-06T13:42:15;0.80;;;0.80;;
50002;SDS011;35889;51.442;6.408;2022-07-06T13:44:40;0.90;;;0.90;;
50002;SDS011;35889;51.442;6.408;2022-07-06T13:47:06;0.80;;;0.80;;
50002;SDS011;35889;51.442;6.408;2022-07-06T13:49:31;1.10;;;1.10;;
50002;SDS011;35889;51.442;6.408;2022-07-06T13:51:57;0.70;;;0.70;;
50002;SDS011;35889;51.442;6.408;2022-07-06T13:54:28;1.10;;;1.10;;
50002;SDS011;35889;51.442;6.408;2022-07-06T13:56:54;1.10;;;1.10;;
50002;SDS011;35889;51.442;6.408;2022-07-06T13:59:19;1.10;;;1.10;;
50002;SDS011;35889;51.442;6.408;2022-07-06T14:01:45;0.70;;;0.70;;
50002;SDS011;35889;51.442;6.408;2022-07-06T14:04:10;0.80;;;0.80;;
50002;SDS011;35889;51.442;6.408;2022-07-06T14:06:36;0.80;;;0.80;;
50002;SDS011;35889;51.442;6.408;2022-07-06T14:09:01;0.80;;;0.80;;
50002;SDS011;35889;51.442;6.408;2022-07-06T14:11:27;0.70;;;0.70;;
50002;SDS011;35889;51.442;6.408;2022-07-06T14:13:52;1.10;;;1.10;;
50002;SDS011;35889;51.442;6.408;2022-07-06T14:16:18;1.10;;;1.10;;
50002;SDS011;35889;51.442;6.408;2022-07-06T14:18:43;1.20;;;1.20;;
50002;SDS011;35889;51.442;6.408;2022-07-06T14:21:09;1.20;;;1.20;;
50002;SDS011;35889;51.442;6.408;2022-07-06T14:23:34;1.10;;;1.10;;
50002;SDS011;35889;51.442;6.408;2022-07-06T14:26:00;1.10;;;1.10;;
50002;SDS011;35889;51.442;6.408;2022-07-06T14:28:25;1.10;;;1.10;;
50002;SDS011;35889;51.442;6.408;2022-07-06T14:30:51;1.10;;;1.10;;
50002;SDS011;35889;51.442;6.408;2022-07-06T14:33:16;0.73;;;0.73;;
50002;SDS011;35889;51.442;6.408;2022-07-06T14:35:43;0.90;;;0.90;;
50002;SDS011;35889;51.442;6.408;2022-07-06T14:38:12;1.10;;;1.10;;
50002;SDS011;35889;51.442;6.408;2022-07-06T14:40:38;0.90;;;0.90;;
50002;SDS011;35889;51.442;6.408;2022-07-06T14:43:04;0.90;;;0.90;;
50002;SDS011;35889;51.442;6.408;2022-07-06T14:45:30;1.10;;;1.10;;
50002;SDS011;35889;51.442;6.408;2022-07-06T14:47:55;0.80;;;0.80;;
50002;SDS011;35889;51.442;6.408;2022-07-06T14:50:21;0.70;;;0.70;;
50002;SDS011;35889;51.442;6.408;2022-07-06T14:52:50;0.80;;;0.80;;
50002;SDS011;35889;51.442;6.408;2022-07-06T14:55:16;0.70;;;0.70;;
50002;SDS011;35889;51.442;6.408;2022-07-06T14:57:42;1.10;;;1.10;;
50002;SDS011;35889;51.442;6.408;2022-07-06T15:00:07;1.10;;;1.10;;
50002;SDS011;35889;51.442;6.408;2022-07-06T15:02:34;1.10;;;1.10;;
50002;SDS011;35889;51.442;6.408;2022-07-06T15:04:59;1.10;;;1.10;;
50002;SDS011;35889;51.442;6.408;2022-07-06T15:07:25;1.10;;;1.10;;